createdAt,value
2022-09-21T00:13:52.087Z,85.5
2022-09-21T00:33:52.104Z,85.5
2022-09-21T00:53:52.025Z,85.4
2022-09-21T01:13:52.049Z,87.4
2022-09-21T01:33:52.065Z,85.2
2022-09-21T01:53:51.989Z,86.1
2022-09-21T02:13:52.011Z,84.7
2022-09-21T02:33:52.023Z,85.4
2022-09-21T02:53:51.945Z,85.6
2022-09-21T03:13:51.964Z,86.0
2022-09-21T03:33:51.980Z,85.5
2022-09-21T03:53:52.006Z,85.7
2022-09-21T04:13:51.920Z,87.9
2022-09-21T04:33:51.939Z,86.2
2022-09-21T04:53:51.996Z,86.0
2022-09-21T05:13:51.988Z,88.5
2022-09-21T05:33:51.895Z,87.6
2022-09-21T05:53:51.944Z,85.1
2022-09-21T06:13:51.965Z,87.3
2022-09-21T06:33:51.861Z,88.3
2022-09-21T06:53:51.866Z,87.5
2022-09-21T07:13:51.914Z,87.6
2022-09-21T07:33:51.932Z,86.1
2022-09-21T07:53:51.840Z,84.8
2022-09-21T08:13:51.859Z,83.9
2022-09-21T08:33:51.911Z,81.5
2022-09-21T08:53:51.898Z,80.2
2022-09-21T09:13:51.817Z,74.4
2022-09-21T09:33:51.798Z,70.8
2022-09-21T09:53:51.777Z,67.9
2022-09-21T10:13:51.774Z,65.8
2022-09-21T10:33:51.696Z,63.9
2022-09-21T10:53:51.725Z,61.7
2022-09-21T11:13:51.643Z,61.0
2022-09-21T11:33:51.669Z,59.7
2022-09-21T11:53:51.593Z,61.1
2022-09-21T12:13:51.615Z,60.1
2022-09-21T12:33:51.637Z,55.9
2022-09-21T12:53:51.569Z,57.5
2022-09-21T13:13:51.586Z,56.9
2022-09-21T13:33:51.513Z,53.8
2022-09-21T13:53:51.540Z,57.9
2022-09-21T14:13:51.482Z,56.2
2022-09-21T14:33:51.540Z,57.0
2022-09-21T14:53:51.416Z,59.5
2022-09-21T15:13:51.440Z,60.7
2022-09-21T15:33:51.380Z,60.8
2022-09-21T15:53:51.400Z,59.7
2022-09-21T16:13:51.328Z,63.7
2022-09-21T16:33:51.374Z,64.2
2022-09-21T16:53:51.290Z,66.2
2022-09-21T17:13:51.337Z,72.2
2022-09-21T17:33:51.253Z,72.5
2022-09-21T17:53:51.362Z,74.7
2022-09-21T18:13:51.197Z,74.0
2022-09-21T18:33:51.226Z,76.0
2022-09-21T18:53:51.316Z,78.8
2022-09-21T19:13:51.242Z,77.5
2022-09-21T19:33:51.197Z,80.8
2022-09-21T19:53:51.193Z,80.4
2022-09-21T20:13:51.114Z,81.2
2022-09-21T20:33:51.135Z,81.9
2022-09-21T20:53:51.153Z,82.3
2022-09-21T21:13:51.087Z,83.0
2022-09-21T21:33:51.118Z,82.2
2022-09-21T21:53:51.121Z,83.6
2022-09-21T22:13:51.066Z,84.6
2022-09-21T22:33:51.058Z,82.7
2022-09-21T22:53:51.080Z,83.5
2022-09-21T23:13:51.122Z,84.5
2022-09-21T23:33:51.019Z,84.0
2022-09-21T23:53:51.044Z,85.2
